sensor_id;sensor_type;location;lat;lon;timestamp;pressure;altitude;pressure_sealevel;temperature;humidity
37634;BME280;32048;49.902;22.508;2023-05-18T00:00:01;98964.84;;;10.60;100.00
37634;BME280;32048;49.902;22.508;2023-05-18T00:02:28;98966.75;;;10.57;100.00
37634;BME280;32048;49.902;22.508;2023-05-18T00:04:55;98964.19;;;10.55;100.00
37634;BME280;32048;49.902;22.508;2023-05-18T00:07:22;98975.69;;;10.54;100.00
37634;BME280;32048;49.902;22.508;2023-05-18T00:09:50;98969.63;;;10.52;100.00
37634;BME280;32048;49.902;22.508;2023-05-18T00:12:16;98977.63;;;10.51;100.00
37634;BME280;32048;49.902;22.508;2023-05-18T00:14:44;98978.63;;;10.48;100.00
37634;BME280;32048;49.902;22.508;2023-05-18T00:17:11;98977.06;;;10.44;100.00
37634;BME280;32048;49.902;22.508;2023-05-18T00:19:38;98972.63;;;10.45;100.00
37634;BME280;32048;49.902;22.508;2023-05-18T00:22:06;98978.00;;;10.43;100.00
37634;BME280;32048;49.902;22.508;2023-05-18T00:24:33;98980.53;;;10.45;100.00
37634;BME280;32048;49.902;22.508;2023-05-18T00:27:02;98980.53;;;10.45;100.00
37634;BME280;32048;49.902;22.508;2023-05-18T00:29:29;98981.53;;;10.42;100.00
37634;BME280;32048;49.902;22.508;2023-05-18T00:31:56;98976.25;;;10.42;100.00
37634;BME280;32048;49.902;22.508;2023-05-18T00:34:23;98975.41;;;10.42;100.00
37634;BME280;32048;49.902;22.508;2023-05-18T00:36:50;98974.56;;;10.41;100.00
37634;BME280;32048;49.902;22.508;2023-05-18T00:39:17;98985.91;;;10.43;100.00
37634;BME280;32048;49.902;22.508;2023-05-18T00:41:44;98971.16;;;10.39;100.00
37634;BME280;32048;49.902;22.508;2023-05-18T00:44:11;98982.44;;;10.43;100.00
37634;BME280;32048;49.902;22.508;2023-05-18T00:46:38;98987.00;;;10.39;100.00
37634;BME280;32048;49.902;22.508;2023-05-18T00:49:05;98994.06;;;10.38;100.00
37634;BME280;32048;49.902;22.508;2023-05-18T00:51:32;98995.06;;;10.36;100.00
37634;BME280;32048;49.902;22.508;2023-05-18T00:54:00;98992.41;;;10.36;100.00
37634;BME280;32048;49.902;22.508;2023-05-18T00:56:27;98990.84;;;10.32;100.00
37634;BME280;32048;49.902;22.508;2023-05-18T00:58:54;98993.56;;;10.30;100.00
37634;BME280;32048;49.902;22.508;2023-05-18T01:01:26;98991.25;;;10.23;100.00
37634;BME280;32048;49.902;22.508;2023-05-18T01:03:54;98993.94;;;10.21;100.00
37634;BME280;32048;49.902;22.508;2023-05-18T01:06:30;98997.44;;;10.22;100.00
37634;BME280;32048;49.902;22.508;2023-05-18T01:09:02;99001.16;;;10.17;100.00
37634;BME280;32048;49.902;22.508;2023-05-18T01:11:37;99004.88;;;10.13;100.00
37634;BME280;32048;49.902;22.508;2023-05-18T01:14:08;99000.56;;;10.11;100.00
37634;BME280;32048;49.902;22.508;2023-05-18T01:16:50;99015.56;;;10.10;100.00
37634;BME280;32048;49.902;22.508;2023-05-18T01:27:07;99022.69;;;10.08;100.00
37634;BME280;32048;49.902;22.508;2023-05-18T01:29:34;99021.03;;;10.06;100.00
37634;BME280;32048;49.902;22.508;2023-05-18T01:32:03;99018.41;;;10.06;100.00
37634;BME280;32048;49.902;22.508;2023-05-18T01:34:32;99018.47;;;10.04;100.00
37634;BME280;32048;49.902;22.508;2023-05-18T01:36:59;99018.63;;;10.01;100.00
37634;BME280;32048;49.902;22.508;2023-05-18T01:39:26;99011.56;;;10.02;100.00
37634;BME280;32048;49.902;22.508;2023-05-18T01:42:05;99010.75;;;9.99;100.00
37634;BME280;32048;49.902;22.508;2023-05-18T01:44:40;99021.31;;;9.99;100.00
37634;BME280;32048;49.902;22.508;2023-05-18T01:47:13;99023.09;;;9.99;100.00
37634;BME280;32048;49.902;22.508;2023-05-18T01:49:49;99018.78;;;9.98;100.00
37634;BME280;32048;49.902;22.508;2023-05-18T01:52:21;99021.31;;;9.99;100.00
37634;BME280;32048;49.902;22.508;2023-05-18T01:54:51;99023.16;;;9.97;100.00
37634;BME280;32048;49.902;22.508;2023-05-18T01:57:23;99016.25;;;9.95;100.00
37634;BME280;32048;49.902;22.508;2023-05-18T01:59:51;99029.44;;;9.95;100.00
37634;BME280;32048;49.902;22.508;2023-05-18T02:02:20;99027.69;;;9.95;100.00
37634;BME280;32048;49.902;22.508;2023-05-18T02:04:47;99028.53;;;9.96;100.00
37634;BME280;32048;49.902;22.508;2023-05-18T02:07:15;99035.66;;;9.94;100.00
37634;BME280;32048;49.902;22.508;2023-05-18T02:09:42;99031.16;;;9.96;100.00
37634;BME280;32048;49.902;22.508;2023-05-18T02:12:10;99037.28;;;9.96;100.00
37634;BME280;32048;49.902;22.508;2023-05-18T02:14:37;99038.28;;;9.94;100.00
37634;BME280;32048;49.902;22.508;2023-05-18T02:17:04;99047.06;;;9.94;100.00
37634;BME280;32048;49.902;22.508;2023-05-18T02:19:32;99046.22;;;9.94;100.00
37634;BME280;32048;49.902;22.508;2023-05-18T02:22:04;99045.47;;;9.90;100.00
37634;BME280;32048;49.902;22.508;2023-05-18T02:24:32;99046.31;;;9.91;100.00
37634;BME280;32048;49.902;22.508;2023-05-18T02:26:59;99045.47;;;9.90;100.00
37634;BME280;32048;49.902;22.508;2023-05-18T02:29:27;99044.56;;;9.91;100.00
37634;BME280;32048;49.902;22.508;2023-05-18T02:31:54;99050.69;;;9.92;100.00
37634;BME280;32048;49.902;22.508;2023-05-18T02:34:21;99058.59;;;9.92;100.00
37634;BME280;32048;49.902;22.508;2023-05-18T02:36:48;99053.38;;;9.90;100.00
37634;BME280;32048;49.902;22.508;2023-05-18T02:39:15;99055.22;;;9.88;100.00
37634;BME280;32048;49.902;22.508;2023-05-18T02:41:42;99057.88;;;9.88;100.00
37634;BME280;32048;49.902;22.508;2023-05-18T02:44:09;99064.94;;;9.88;100.00
37634;BME280;32048;49.902;22.508;2023-05-18T02:46:37;99057.97;;;9.87;100.00
37634;BME280;32048;49.902;22.508;2023-05-18T02:49:05;99055.38;;;9.85;100.00
37634;BME280;32048;49.902;22.508;2023-05-18T02:51:31;99057.81;;;9.90;100.00
37634;BME280;32048;49.902;22.508;2023-05-18T02:53:59;99064.78;;;9.91;100.00
37634;BME280;32048;49.902;22.508;2023-05-18T02:56:26;99060.41;;;9.91;100.00
37634;BME280;32048;49.902;22.508;2023-05-18T02:58:54;99064.72;;;9.92;100.00
37634;BME280;32048;49.902;22.508;2023-05-18T03:01:23;99069.16;;;9.92;100.00
37634;BME280;32048;49.902;22.508;2023-05-18T03:03:53;99072.66;;;9.92;100.00
37634;BME280;32048;49.902;22.508;2023-05-18T03:06:19;99071.84;;;9.90;100.00
37634;BME280;32048;49.902;22.508;2023-05-18T03:08:52;99073.69;;;9.88;100.00
37634;BME280;32048;49.902;22.508;2023-05-18T03:11:22;99077.13;;;9.90;100.00
37634;BME280;32048;49.902;22.508;2023-05-18T03:13:50;99072.69;;;9.91;100.00
37634;BME280;32048;49.902;22.508;2023-05-18T03:16:17;99075.34;;;9.91;100.00
37634;BME280;32048;49.902;22.508;2023-05-18T03:18:44;99079.72;;;9.92;100.00
37634;BME280;32048;49.902;22.508;2023-05-18T03:21:11;99082.41;;;9.90;100.00
37634;BME280;32048;49.902;22.508;2023-05-18T03:23:39;99085.91;;;9.91;100.00
37634;BME280;32048;49.902;22.508;2023-05-18T03:26:06;99094.69;;;9.91;100.00
37634;BME280;32048;49.902;22.508;2023-05-18T03:28:37;99096.28;;;9.95;100.00
37634;BME280;32048;49.902;22.508;2023-05-18T03:31:04;99087.41;;;9.96;100.00
37634;BME280;32048;49.902;22.508;2023-05-18T03:33:32;99095.34;;;9.96;100.00
37634;BME280;32048;49.902;22.508;2023-05-18T03:36:02;99092.69;;;9.96;100.00
37634;BME280;32048;49.902;22.508;2023-05-18T03:38:29;99099.66;;;9.97;100.00
37634;BME280;32048;49.902;22.508;2023-05-18T03:40:56;99106.69;;;9.98;100.00
37634;BME280;32048;49.902;22.508;2023-05-18T03:43:23;99107.53;;;9.99;100.00
37634;BME280;32048;49.902;22.508;2023-05-18T03:45:51;99121.50;;;10.01;100.00
37634;BME280;32048;49.902;22.508;2023-05-18T03:48:19;99122.38;;;10.02;100.00
37634;BME280;32048;49.902;22.508;2023-05-18T03:50:46;99124.16;;;10.01;100.00
37634;BME280;32048;49.902;22.508;2023-05-18T03:53:14;99129.56;;;9.98;100.00
37634;BME280;32048;49.902;22.508;2023-05-18T03:55:44;99139.25;;;9.97;100.00
37634;BME280;32048;49.902;22.508;2023-05-18T03:58:12;99140.19;;;9.96;100.00
37634;BME280;32048;49.902;22.508;2023-05-18T04:00:39;99140.25;;;9.95;100.00
37634;BME280;32048;49.902;22.508;2023-05-18T04:03:06;99143.81;;;9.94;100.00
37634;BME280;32048;49.902;22.508;2023-05-18T04:05:33;99143.94;;;9.91;100.00
37634;BME280;32048;49.902;22.508;2023-05-18T04:08:00;99144.72;;;9.93;100.00
37634;BME280;32048;49.902;22.508;2023-05-18T04:10:27;99152.72;;;9.91;100.00
37634;BME280;32048;49.902;22.508;2023-05-18T04:12:54;99158.06;;;9.90;100.00
37634;BME280;32048;49.902;22.508;2023-05-18T04:15:21;99158.25;;;9.85;100.00
37634;BME280;32048;49.902;22.508;2023-05-18T04:17:49;99160.88;;;9.85;100.00
37634;BME280;32048;49.902;22.508;2023-05-18T04:20:16;99171.44;;;9.85;100.00
37634;BME280;32048;49.902;22.508;2023-05-18T04:22:45;99168.00;;;9.83;100.00
37634;BME280;32048;49.902;22.508;2023-05-18T04:25:13;99169.84;;;9.81;100.00
37634;BME280;32048;49.902;22.508;2023-05-18T04:27:40;99170.91;;;9.77;100.00
37634;BME280;32048;49.902;22.508;2023-05-18T04:30:16;99177.06;;;9.77;100.00
37634;BME280;32048;49.902;22.508;2023-05-18T04:32:44;99179.59;;;9.79;100.00
37634;BME280;32048;49.902;22.508;2023-05-18T04:35:11;99179.59;;;9.79;100.00
37634;BME280;32048;49.902;22.508;2023-05-18T04:37:39;99185.69;;;9.81;100.00
37634;BME280;32048;49.902;22.508;2023-05-18T04:40:07;99186.66;;;9.78;100.00
37634;BME280;32048;49.902;22.508;2023-05-18T04:42:34;99189.50;;;9.74;100.00
37634;BME280;32048;49.902;22.508;2023-05-18T04:45:01;99195.00;;;9.68;100.00
37634;BME280;32048;49.902;22.508;2023-05-18T04:47:29;99196.06;;;9.64;100.00
37634;BME280;32048;49.902;22.508;2023-05-18T04:49:55;99205.91;;;9.60;100.00
37634;BME280;32048;49.902;22.508;2023-05-18T04:52:23;99207.84;;;9.55;100.00
37634;BME280;32048;49.902;22.508;2023-05-18T04:54:50;99209.75;;;9.51;100.00
37634;BME280;32048;49.902;22.508;2023-05-18T04:57:17;99219.50;;;9.49;100.00
37634;BME280;32048;49.902;22.508;2023-05-18T04:59:44;99218.66;;;9.49;100.00
37634;BME280;32048;49.902;22.508;2023-05-18T05:02:13;99216.00;;;9.49;100.00
37634;BME280;32048;49.902;22.508;2023-05-18T05:04:40;99229.13;;;9.50;100.00
37634;BME280;32048;49.902;22.508;2023-05-18T05:07:07;99225.56;;;9.51;100.00
37634;BME280;32048;49.902;22.508;2023-05-18T05:09:34;99226.56;;;9.49;100.00
37634;BME280;32048;49.902;22.508;2023-05-18T05:12:01;99240.03;;;9.41;100.00
37634;BME280;32048;49.902;22.508;2023-05-18T05:14:28;99242.78;;;9.38;100.00
37634;BME280;32048;49.902;22.508;2023-05-18T05:16:55;99247.41;;;9.33;100.00
37634;BME280;32048;49.902;22.508;2023-05-18T05:19:22;99248.34;;;9.30;100.00
37634;BME280;32048;49.902;22.508;2023-05-18T05:21:49;99261.47;;;9.32;100.00
37634;BME280;32048;49.902;22.508;2023-05-18T05:24:16;99266.78;;;9.30;100.00
37634;BME280;32048;49.902;22.508;2023-05-18T05:26:43;99263.38;;;9.28;100.00
37634;BME280;32048;49.902;22.508;2023-05-18T05:29:10;99261.59;;;9.29;100.00
37634;BME280;32048;49.902;22.508;2023-05-18T05:31:37;99261.69;;;9.26;100.00
37634;BME280;32048;49.902;22.508;2023-05-18T05:34:04;99259.16;;;9.24;100.00
37634;BME280;32048;49.902;22.508;2023-05-18T05:36:31;99261.84;;;9.23;100.00
37634;BME280;32048;49.902;22.508;2023-05-18T05:38:59;99268.88;;;9.22;100.00
37634;BME280;32048;49.902;22.508;2023-05-18T05:41:26;99265.41;;;9.22;100.00
37634;BME280;32048;49.902;22.508;2023-05-18T05:43:53;99261.78;;;9.24;100.00
37634;BME280;32048;49.902;22.508;2023-05-18T05:46:20;99266.03;;;9.28;100.00
37634;BME280;32048;49.902;22.508;2023-05-18T05:48:47;99268.59;;;9.30;100.00
37634;BME280;32048;49.902;22.508;2023-05-18T05:51:14;99265.94;;;9.30;100.00
37634;BME280;32048;49.902;22.508;2023-05-18T05:53:41;99266.78;;;9.30;100.00
37634;BME280;32048;49.902;22.508;2023-05-18T05:56:09;99272.16;;;9.29;100.00
37634;BME280;32048;49.902;22.508;2023-05-18T05:58:36;99279.25;;;9.27;100.00
37634;BME280;32048;49.902;22.508;2023-05-18T06:01:03;99280.94;;;9.28;100.00
37634;BME280;32048;49.902;22.508;2023-05-18T06:03:30;99284.41;;;9.30;100.00
37634;BME280;32048;49.902;22.508;2023-05-18T06:06:00;99283.38;;;9.34;100.00
37634;BME280;32048;49.902;22.508;2023-05-18T06:08:27;99285.81;;;9.39;100.00
37634;BME280;32048;49.902;22.508;2023-05-18T06:10:54;99291.84;;;9.42;100.00
37634;BME280;32048;49.902;22.508;2023-05-18T06:13:21;99291.84;;;9.42;100.00
37634;BME280;32048;49.902;22.508;2023-05-18T06:15:48;99291.66;;;9.47;100.00
37634;BME280;32048;49.902;22.508;2023-05-18T06:18:15;99294.16;;;9.50;100.00
37634;BME280;32048;49.902;22.508;2023-05-18T06:20:42;99295.78;;;9.54;100.00
37634;BME280;32048;49.902;22.508;2023-05-18T06:23:09;99294.78;;;9.56;100.00
37634;BME280;32048;49.902;22.508;2023-05-18T06:25:36;99301.72;;;9.59;100.00
37634;BME280;32048;49.902;22.508;2023-05-18T06:28:03;99301.84;;;9.56;100.00
37634;BME280;32048;49.902;22.508;2023-05-18T06:30:30;99313.25;;;9.56;100.00
37634;BME280;32048;49.902;22.508;2023-05-18T06:32:57;99313.91;;;9.62;100.00
37634;BME280;32048;49.902;22.508;2023-05-18T06:35:24;99313.72;;;9.66;100.00
37634;BME280;32048;49.902;22.508;2023-05-18T06:37:51;99316.50;;;9.63;100.00
37634;BME280;32048;49.902;22.508;2023-05-18T06:40:18;99324.38;;;9.65;100.00
37634;BME280;32048;49.902;22.508;2023-05-18T06:42:45;99326.88;;;9.68;100.00
37634;BME280;32048;49.902;22.508;2023-05-18T06:45:14;99333.69;;;9.73;100.00
37634;BME280;32048;49.902;22.508;2023-05-18T06:47:41;99336.34;;;9.73;100.00
37634;BME280;32048;49.902;22.508;2023-05-18T06:50:08;99334.56;;;9.74;100.00
37634;BME280;32048;49.902;22.508;2023-05-18T06:52:35;99335.53;;;9.71;100.00
37634;BME280;32048;49.902;22.508;2023-05-18T06:55:02;99344.44;;;9.69;100.00
37634;BME280;32048;49.902;22.508;2023-05-18T06:57:30;99340.69;;;9.74;100.00
37634;BME280;32048;49.902;22.508;2023-05-18T06:59:57;99355.34;;;9.82;100.00
37634;BME280;32048;49.902;22.508;2023-05-18T07:02:24;99350.75;;;9.87;100.00
37634;BME280;32048;49.902;22.508;2023-05-18T07:04:52;99357.75;;;9.88;100.00
37634;BME280;32048;49.902;22.508;2023-05-18T07:07:19;99361.38;;;9.85;100.00
37634;BME280;32048;49.902;22.508;2023-05-18T07:09:47;99359.75;;;9.81;100.00
37634;BME280;32048;49.902;22.508;2023-05-18T07:12:15;99364.47;;;9.73;100.00
37634;BME280;32048;49.902;22.508;2023-05-18T07:14:42;99377.81;;;9.68;100.00
37634;BME280;32048;49.902;22.508;2023-05-18T07:17:09;99376.13;;;9.67;100.00
37634;BME280;32048;49.902;22.508;2023-05-18T07:19:36;99378.63;;;9.70;100.00
37634;BME280;32048;49.902;22.508;2023-05-18T07:22:03;99382.16;;;9.71;100.00
37634;BME280;32048;49.902;22.508;2023-05-18T07:24:30;99388.09;;;9.76;100.00
37634;BME280;32048;49.902;22.508;2023-05-18T07:26:57;99394.97;;;9.80;100.00
37634;BME280;32048;49.902;22.508;2023-05-18T07:29:27;99388.59;;;9.86;100.00
37634;BME280;32048;49.902;22.508;2023-05-18T07:31:54;99386.53;;;9.94;100.00
37634;BME280;32048;49.902;22.508;2023-05-18T07:34:22;99394.06;;;10.03;100.00
37634;BME280;32048;49.902;22.508;2023-05-18T07:36:48;99393.03;;;10.07;100.00
37634;BME280;32048;49.902;22.508;2023-05-18T07:39:16;99395.59;;;10.09;100.00
37634;BME280;32048;49.902;22.508;2023-05-18T07:41:45;99398.13;;;10.12;100.00
37634;BME280;32048;49.902;22.508;2023-05-18T07:44:14;99398.00;;;10.15;100.00
37634;BME280;32048;49.902;22.508;2023-05-18T07:46:41;99400.59;;;10.16;100.00
37634;BME280;32048;49.902;22.508;2023-05-18T07:49:08;99401.75;;;10.09;100.00
37634;BME280;32048;49.902;22.508;2023-05-18T07:51:35;99406.22;;;10.07;100.00
37634;BME280;32048;49.902;22.508;2023-05-18T07:54:02;99401.06;;;10.04;100.00
37634;BME280;32048;49.902;22.508;2023-05-18T07:56:30;99408.03;;;10.07;100.00
37634;BME280;32048;49.902;22.508;2023-05-18T07:58:57;99409.59;;;10.11;100.00
37634;BME280;32048;49.902;22.508;2023-05-18T08:01:24;99414.69;;;10.15;100.00
37634;BME280;32048;49.902;22.508;2023-05-18T08:03:54;99410.91;;;10.23;100.00
37634;BME280;32048;49.902;22.508;2023-05-18T08:06:21;99421.78;;;10.37;100.00
37634;BME280;32048;49.902;22.508;2023-05-18T08:08:48;99414.16;;;10.51;100.00
37634;BME280;32048;49.902;22.508;2023-05-18T08:11:14;99416.44;;;10.60;100.00
37634;BME280;32048;49.902;22.508;2023-05-18T08:13:42;99420.66;;;10.65;100.00
37634;BME280;32048;49.902;22.508;2023-05-18T08:16:08;99425.06;;;10.64;100.00
37634;BME280;32048;49.902;22.508;2023-05-18T08:18:38;99427.91;;;10.59;100.00
37634;BME280;32048;49.902;22.508;2023-05-18T08:21:05;99436.03;;;10.55;100.00
37634;BME280;32048;49.902;22.508;2023-05-18T08:23:35;99430.97;;;10.49;100.00
37634;BME280;32048;49.902;22.508;2023-05-18T08:26:02;99431.31;;;10.41;100.00
37634;BME280;32048;49.902;22.508;2023-05-18T08:28:29;99429.75;;;10.35;100.00
37634;BME280;32048;49.902;22.508;2023-05-18T08:30:56;99437.81;;;10.32;100.00
37634;BME280;32048;49.902;22.508;2023-05-18T08:33:24;99436.97;;;10.32;100.00
37634;BME280;32048;49.902;22.508;2023-05-18T08:35:51;99438.63;;;10.34;100.00
37634;BME280;32048;49.902;22.508;2023-05-18T08:38:18;99432.34;;;10.37;100.00
37634;BME280;32048;49.902;22.508;2023-05-18T08:40:49;99430.06;;;10.28;100.00
37634;BME280;32048;49.902;22.508;2023-05-18T08:43:21;99437.22;;;10.24;100.00
37634;BME280;32048;49.902;22.508;2023-05-18T08:46:06;99440.22;;;10.15;100.00
37634;BME280;32048;49.902;22.508;2023-05-18T08:48:36;99446.72;;;10.06;100.00
37634;BME280;32048;49.902;22.508;2023-05-18T08:51:03;99437.16;;;10.04;100.00
37634;BME280;32048;49.902;22.508;2023-05-18T08:53:32;99437.75;;;10.10;100.00
37634;BME280;32048;49.902;22.508;2023-05-18T08:56:02;99430.47;;;10.17;100.00
37634;BME280;32048;49.902;22.508;2023-05-18T08:58:31;99430.09;;;10.26;100.00
37634;BME280;32048;49.902;22.508;2023-05-18T09:01:00;99427.25;;;10.32;100.00
37634;BME280;32048;49.902;22.508;2023-05-18T09:03:27;99436.88;;;10.33;100.00
37634;BME280;32048;49.902;22.508;2023-05-18T09:05:54;99435.78;;;10.39;100.00
37634;BME280;32048;49.902;22.508;2023-05-18T09:08:23;99434.41;;;10.51;100.00
37634;BME280;32048;49.902;22.508;2023-05-18T09:10:50;99424.03;;;10.68;100.00
37634;BME280;32048;49.902;22.508;2023-05-18T09:13:17;99414.66;;;10.81;100.00
37634;BME280;32048;49.902;22.508;2023-05-18T09:15:46;99415.00;;;10.94;100.00
37634;BME280;32048;49.902;22.508;2023-05-18T09:18:13;99427.75;;;11.05;100.00
37634;BME280;32048;49.902;22.508;2023-05-18T09:20:40;99419.34;;;11.16;100.00
37634;BME280;32048;49.902;22.508;2023-05-18T09:23:07;99423.22;;;11.28;100.00
37634;BME280;32048;49.902;22.508;2023-05-18T09:25:34;99425.28;;;11.41;100.00
37634;BME280;32048;49.902;22.508;2023-05-18T09:28:03;99424.78;;;11.52;100.00
37634;BME280;32048;49.902;22.508;2023-05-18T09:30:31;99430.59;;;11.60;100.00
37634;BME280;32048;49.902;22.508;2023-05-18T09:33:05;99427.88;;;11.62;100.00
37634;BME280;32048;49.902;22.508;2023-05-18T09:35:40;99430.19;;;11.70;100.00
37634;BME280;32048;49.902;22.508;2023-05-18T09:38:07;99424.44;;;11.79;100.00
37634;BME280;32048;49.902;22.508;2023-05-18T09:40:34;99430.81;;;11.95;100.00
37634;BME280;32048;49.902;22.508;2023-05-18T09:43:05;99434.22;;;12.16;100.00
37634;BME280;32048;49.902;22.508;2023-05-18T09:45:32;99429.31;;;12.26;100.00
37634;BME280;32048;49.902;22.508;2023-05-18T09:47:59;99446.94;;;12.27;100.00
37634;BME280;32048;49.902;22.508;2023-05-18T09:50:26;99441.94;;;12.21;100.00
37634;BME280;32048;49.902;22.508;2023-05-18T09:52:53;99443.72;;;12.01;100.00
37634;BME280;32048;49.902;22.508;2023-05-18T09:55:20;99452.66;;;11.80;100.00
37634;BME280;32048;49.902;22.508;2023-05-18T09:57:48;99444.41;;;11.67;100.00
37634;BME280;32048;49.902;22.508;2023-05-18T10:00:16;99447.53;;;11.56;100.00
37634;BME280;32048;49.902;22.508;2023-05-18T10:02:45;99452.38;;;11.47;100.00
37634;BME280;32048;49.902;22.508;2023-05-18T10:05:24;99448.56;;;11.33;100.00
37634;BME280;32048;49.902;22.508;2023-05-18T10:08:02;99452.88;;;11.15;100.00
37634;BME280;32048;49.902;22.508;2023-05-18T10:10:29;99452.22;;;11.10;100.00
37634;BME280;32048;49.902;22.508;2023-05-18T10:12:56;99449.63;;;11.09;100.00
37634;BME280;32048;49.902;22.508;2023-05-18T10:15:24;99455.66;;;11.12;100.00
37634;BME280;32048;49.902;22.508;2023-05-18T10:17:53;99456.50;;;11.13;100.00
37634;BME280;32048;49.902;22.508;2023-05-18T10:20:21;99459.16;;;11.13;100.00
37634;BME280;32048;49.902;22.508;2023-05-18T10:22:50;99466.22;;;11.12;100.00
37634;BME280;32048;49.902;22.508;2023-05-18T10:25:18;99462.78;;;11.10;100.00
37634;BME280;32048;49.902;22.508;2023-05-18T10:27:46;99456.56;;;11.11;100.00
37634;BME280;32048;49.902;22.508;2023-05-18T10:30:14;99460.78;;;11.15;100.00
37634;BME280;32048;49.902;22.508;2023-05-18T10:32:42;99460.75;;;11.17;100.00
37634;BME280;32048;49.902;22.508;2023-05-18T10:35:09;99462.50;;;11.16;100.00
37634;BME280;32048;49.902;22.508;2023-05-18T10:37:38;99450.88;;;11.20;100.00
37634;BME280;32048;49.902;22.508;2023-05-18T10:40:07;99451.59;;;11.24;100.00
37634;BME280;32048;49.902;22.508;2023-05-18T10:42:34;99454.00;;;11.30;100.00
37634;BME280;32048;49.902;22.508;2023-05-18T10:45:01;99456.28;;;11.38;100.00
37634;BME280;32048;49.902;22.508;2023-05-18T10:47:29;99445.34;;;11.45;100.00
37634;BME280;32048;49.902;22.508;2023-05-18T10:49:58;99453.03;;;11.52;100.00
37634;BME280;32048;49.902;22.508;2023-05-18T10:52:26;99457.31;;;11.54;100.00
37634;BME280;32048;49.902;22.508;2023-05-18T10:54:57;99456.41;;;11.55;100.00
37634;BME280;32048;49.902;22.508;2023-05-18T10:57:31;99452.19;;;11.51;100.00
37634;BME280;32048;49.902;22.508;2023-05-18T11:00:00;99452.22;;;11.50;100.00
37634;BME280;32048;49.902;22.508;2023-05-18T11:02:27;99453.88;;;11.52;100.00
37634;BME280;32048;49.902;22.508;2023-05-18T11:04:55;99464.75;;;11.46;100.00
37634;BME280;32048;49.902;22.508;2023-05-18T11:07:23;99462.09;;;11.46;100.00
37634;BME280;32048;49.902;22.508;2023-05-18T11:09:51;99461.97;;;11.49;100.00
37634;BME280;32048;49.902;22.508;2023-05-18T11:12:20;99461.06;;;11.50;100.00
37634;BME280;32048;49.902;22.508;2023-05-18T11:14:51;99462.09;;;11.46;100.00
37634;BME280;32048;49.902;22.508;2023-05-18T11:17:25;99462.31;;;11.41;100.00
37634;BME280;32048;49.902;22.508;2023-05-18T11:28:02;99477.34;;;10.98;100.00
37634;BME280;32048;49.902;22.508;2023-05-18T11:33:09;99477.75;;;10.89;100.00
37634;BME280;32048;49.902;22.508;2023-05-18T11:38:23;99479.22;;;10.96;100.00
37634;BME280;32048;49.902;22.508;2023-05-18T11:40:55;99476.50;;;10.98;100.00
37634;BME280;32048;49.902;22.508;2023-05-18T11:43:24;99472.94;;;10.99;100.00
37634;BME280;32048;49.902;22.508;2023-05-18T11:45:55;99479.94;;;11.00;100.00
37634;BME280;32048;49.902;22.508;2023-05-18T11:48:25;99486.28;;;10.96;100.00
37634;BME280;32048;49.902;22.508;2023-05-18T11:50:55;99488.25;;;10.91;100.00
37634;BME280;32048;49.902;22.508;2023-05-18T11:53:23;99492.00;;;10.85;100.00
37634;BME280;32048;49.902;22.508;2023-05-18T11:55:53;99494.72;;;10.84;100.00
37634;BME280;32048;49.902;22.508;2023-05-18T11:58:23;99492.28;;;10.79;100.00
37634;BME280;32048;49.902;22.508;2023-05-18T12:00:50;99497.63;;;10.77;100.00
37634;BME280;32048;49.902;22.508;2023-05-18T12:03:18;99501.53;;;10.67;100.00
37634;BME280;32048;49.902;22.508;2023-05-18T12:05:48;99492.94;;;10.62;100.00
37634;BME280;32048;49.902;22.508;2023-05-18T12:08:19;99504.69;;;10.55;100.00
37634;BME280;32048;49.902;22.508;2023-05-18T12:10:47;99505.81;;;10.49;100.00
37634;BME280;32048;49.902;22.508;2023-05-18T12:13:16;99506.13;;;10.40;100.00
37634;BME280;32048;49.902;22.508;2023-05-18T12:15:43;99514.41;;;10.31;100.00
37634;BME280;32048;49.902;22.508;2023-05-18T12:18:11;99508.34;;;10.29;100.00
37634;BME280;32048;49.902;22.508;2023-05-18T12:20:38;99511.88;;;10.28;100.00
37634;BME280;32048;49.902;22.508;2023-05-18T12:23:06;99506.59;;;10.28;100.00
37634;BME280;32048;49.902;22.508;2023-05-18T12:25:33;99505.75;;;10.27;100.00
37634;BME280;32048;49.902;22.508;2023-05-18T12:28:00;99503.97;;;10.28;100.00
37634;BME280;32048;49.902;22.508;2023-05-18T12:30:27;99500.41;;;10.29;100.00
37634;BME280;32048;49.902;22.508;2023-05-18T12:33:01;99500.41;;;10.29;100.00
37634;BME280;32048;49.902;22.508;2023-05-18T12:35:29;99503.06;;;10.29;100.00
37634;BME280;32048;49.902;22.508;2023-05-18T12:37:57;99506.59;;;10.28;100.00
37634;BME280;32048;49.902;22.508;2023-05-18T12:40:34;99506.72;;;10.25;100.00
37634;BME280;32048;49.902;22.508;2023-05-18T12:43:10;99505.84;;;10.24;100.00
37634;BME280;32048;49.902;22.508;2023-05-18T12:45:38;99506.72;;;10.25;100.00
37634;BME280;32048;49.902;22.508;2023-05-18T12:48:07;99505.78;;;10.26;100.00
37634;BME280;32048;49.902;22.508;2023-05-18T12:50:34;99509.22;;;10.29;100.00
37634;BME280;32048;49.902;22.508;2023-05-18T12:53:03;99513.63;;;10.29;100.00
37634;BME280;32048;49.902;22.508;2023-05-18T12:55:30;99509.28;;;10.26;100.00
37634;BME280;32048;49.902;22.508;2023-05-18T12:58:03;99510.31;;;10.22;100.00
37634;BME280;32048;49.902;22.508;2023-05-18T13:03:09;99513.84;;;10.23;100.00
37634;BME280;32048;49.902;22.508;2023-05-18T13:05:41;99511.19;;;10.23;100.00
37634;BME280;32048;49.902;22.508;2023-05-18T13:08:16;99516.34;;;10.26;100.00
37634;BME280;32048;49.902;22.508;2023-05-18T13:10:47;99519.03;;;10.24;100.00
37634;BME280;32048;49.902;22.508;2023-05-18T13:13:33;99510.97;;;10.29;100.00